Time;durP1;ratioP1;P1;durP2;ratioP2;P2;SDS_P1;SDS_P2;PMS_P1;PMS_P2;Temp;Humidity;BMP_temperature;BMP_pressure;BME280_temperature;BME280_humidity;BME280_pressure;Samples;Min_cycle;Max_cycle;Signal;HPM_P1;HPM_P2
2022/01/24 02:13:35;;;;;;;0.00;0.00;;;;;;;;;;5045146;27;20708;-69
2022/01/24 02:16:10;;;;;;;0.00;0.00;;;;;;;;;;5046220;28;21507;-69
2022/01/24 02:18:46;;;;;;;0.00;0.00;;;;;;;;;;5047689;28;20187;-70
2022/01/24 02:21:27;;;;;;;0.00;0.00;;;;;;;;;;5043141;28;20282;-68
2022/01/24 02:23:58;;;;;;;0.10;0.10;;;;;;;;;;5043802;28;20191;-68
2022/01/24 02:26:26;;;;;;;1.33;1.33;;;;;;;;;;5045146;28;20285;-67
2022/01/24 02:29:01;;;;;;;0.00;0.00;;;;;;;;;;5041923;28;20641;-69
2022/01/24 02:31:45;;;;;;;0.00;0.00;;;;;;;;;;5046819;28;22582;-67
2022/01/24 02:34:27;;;;;;;0.03;0.03;;;;;;;;;;5043462;28;20207;-69
2022/01/24 02:36:56;;;;;;;0.80;0.80;;;;;;;;;;5044657;28;20207;-71
2022/01/24 02:50:38;;;;;;;0.00;0.00;;;;;;;;;;5049430;28;20260;-68
2022/01/24 02:53:07;;;;;;;0.00;0.00;;;;;;;;;;5048925;28;20711;-68
2022/01/24 02:55:37;;;;;;;0.00;0.00;;;;;;;;;;5053005;28;20203;-68
2022/01/24 02:58:05;;;;;;;0.00;0.00;;;;;;;;;;5054272;28;20209;-70
2022/01/24 03:00:32;;;;;;;0.00;0.00;;;;;;;;;;5050236;28;20199;-68
2022/01/24 03:03:00;;;;;;;0.00;0.00;;;;;;;;;;5051847;28;20241;-67
2022/01/24 03:05:27;;;;;;;0.00;0.00;;;;;;;;;;5048847;28;20199;-68
2022/01/24 03:07:54;;;;;;;0.00;0.00;;;;;;;;;;5051186;28;20207;-69
2022/01/24 03:10:29;;;;;;;0.00;0.00;;;;;;;;;;5051159;28;20239;-68
2022/01/24 03:13:10;;;;;;;0.00;0.00;;;;;;;;;;5044679;28;20299;-69
2022/01/24 03:15:38;;;;;;;0.00;0.00;;;;;;;;;;5042700;28;20195;-69
2022/01/24 03:18:06;;;;;;;0.10;0.10;;;;;;;;;;5040019;28;20718;-71
2022/01/24 03:20:33;;;;;;;0.00;0.00;;;;;;;;;;5043519;28;20214;-67
2022/01/24 03:23:00;;;;;;;0.00;0.00;;;;;;;;;;5046445;28;20191;-70
2022/01/24 03:25:29;;;;;;;1.20;1.13;;;;;;;;;;5036764;28;20192;-69
2022/01/24 03:27:57;;;;;;;0.57;0.57;;;;;;;;;;5036502;28;20587;-68
2022/01/24 03:30:25;;;;;;;0.00;0.00;;;;;;;;;;5037991;28;20519;-68
2022/01/24 03:32:52;;;;;;;0.00;0.00;;;;;;;;;;5037122;28;20251;-68
2022/01/24 03:35:20;;;;;;;0.00;0.00;;;;;;;;;;5036016;28;20559;-68
2022/01/24 03:37:48;;;;;;;0.00;0.00;;;;;;;;;;5034459;28;20203;-68
2022/01/24 03:40:15;;;;;;;0.00;0.00;;;;;;;;;;5039206;28;20226;-69
2022/01/24 03:42:44;;;;;;;0.17;0.17;;;;;;;;;;5038135;28;20203;-68
2022/01/24 03:45:12;;;;;;;0.00;0.00;;;;;;;;;;5037447;28;20206;-68
2022/01/24 03:47:56;;;;;;;0.00;0.00;;;;;;;;;;5039742;28;20953;-68
2022/01/24 03:50:23;;;;;;;0.00;0.00;;;;;;;;;;5025129;28;20758;-67
2022/01/24 03:52:51;;;;;;;2.83;2.63;;;;;;;;;;5024782;28;20333;-71
2022/01/24 03:55:18;;;;;;;0.00;0.00;;;;;;;;;;5025570;28;20204;-70
2022/01/24 03:57:47;;;;;;;0.00;0.00;;;;;;;;;;5027813;28;20246;-70
2022/01/24 04:00:14;;;;;;;0.00;0.00;;;;;;;;;;5027197;28;20207;-68
2022/01/24 04:02:42;;;;;;;0.00;0.00;;;;;;;;;;5026409;28;20223;-69
2022/01/24 04:05:09;;;;;;;0.10;0.10;;;;;;;;;;5024513;28;20204;-69
2022/01/24 04:07:37;;;;;;;0.00;0.00;;;;;;;;;;5028857;28;20196;-69
2022/01/24 04:10:07;;;;;;;0.00;0.00;;;;;;;;;;5026822;28;20212;-68
2022/01/24 04:12:36;;;;;;;0.00;0.00;;;;;;;;;;5025826;28;20240;-67
2022/01/24 04:15:25;;;;;;;0.00;0.00;;;;;;;;;;5027822;28;20563;-69
2022/01/24 04:18:10;;;;;;;0.00;0.00;;;;;;;;;;5031011;28;20334;-68
2022/01/24 04:23:23;;;;;;;0.00;0.00;;;;;;;;;;5028382;28;20262;-68
2022/01/24 04:25:50;;;;;;;0.20;0.20;;;;;;;;;;5026243;28;20208;-70
2022/01/24 04:28:17;;;;;;;0.00;0.00;;;;;;;;;;5015586;28;20253;-69
2022/01/24 04:30:47;;;;;;;0.00;0.00;;;;;;;;;;5014442;28;20203;-69
2022/01/24 04:33:15;;;;;;;0.00;0.00;;;;;;;;;;5014814;28;20195;-69
2022/01/24 04:35:42;;;;;;;0.10;0.10;;;;;;;;;;5007847;28;20204;-69
2022/01/24 04:38:09;;;;;;;0.00;0.00;;;;;;;;;;5011431;28;20203;-72
2022/01/24 04:40:37;;;;;;;0.77;0.40;;;;;;;;;;5015365;28;20215;-68
2022/01/24 04:43:26;;;;;;;0.80;0.80;;;;;;;;;;5011046;28;20215;-69
2022/01/24 04:46:06;;;;;;;0.37;0.37;;;;;;;;;;5019957;28;20200;-68
2022/01/24 05:36:36;;;;;;;0.00;0.00;;;;;;;;;;5041948;27;22275;-70
2022/01/24 05:39:04;;;;;;;0.00;0.00;;;;;;;;;;5040164;28;20203;-69
2022/01/24 05:41:31;;;;;;;0.00;0.00;;;;;;;;;;5039115;28;20717;-68
2022/01/24 05:43:58;;;;;;;0.17;0.13;;;;;;;;;;5043682;28;20663;-69
2022/01/24 05:46:26;;;;;;;0.00;0.00;;;;;;;;;;5045327;28;20556;-69
2022/01/24 05:48:54;;;;;;;0.13;0.13;;;;;;;;;;5040680;28;21191;-69
2022/01/24 05:51:22;;;;;;;0.00;0.00;;;;;;;;;;5042085;28;20290;-68
2022/01/24 05:53:50;;;;;;;0.00;0.00;;;;;;;;;;5041192;28;20211;-68
2022/01/24 05:56:18;;;;;;;0.00;0.00;;;;;;;;;;5041976;28;20203;-68
2022/01/24 05:58:45;;;;;;;0.00;0.00;;;;;;;;;;5039065;28;20403;-68
2022/01/24 06:01:12;;;;;;;0.13;0.13;;;;;;;;;;5041733;28;20627;-68
2022/01/24 06:03:40;;;;;;;0.00;0.00;;;;;;;;;;5040946;28;20203;-70
2022/01/24 06:06:08;;;;;;;0.27;0.27;;;;;;;;;;5039559;28;20320;-71
2022/01/24 06:08:35;;;;;;;0.10;0.10;;;;;;;;;;5042012;28;20200;-69
2022/01/24 06:11:04;;;;;;;0.00;0.00;;;;;;;;;;5040024;28;20272;-69
2022/01/24 06:13:31;;;;;;;0.00;0.00;;;;;;;;;;5037459;28;20210;-68
2022/01/24 06:15:59;;;;;;;0.00;0.00;;;;;;;;;;5029245;28;20665;-69
2022/01/24 06:18:26;;;;;;;0.00;0.00;;;;;;;;;;5021897;28;20330;-68
2022/01/24 06:20:53;;;;;;;0.00;0.00;;;;;;;;;;5024448;28;20896;-70
2022/01/24 06:23:22;;;;;;;0.00;0.00;;;;;;;;;;5019427;28;20252;-69
2022/01/24 06:25:49;;;;;;;0.00;0.00;;;;;;;;;;5029659;28;20250;-71
2022/01/24 06:28:18;;;;;;;0.00;0.00;;;;;;;;;;5023037;28;20204;-69
2022/01/24 06:30:45;;;;;;;0.67;0.67;;;;;;;;;;5020997;28;20283;-71
2022/01/24 06:33:12;;;;;;;0.00;0.00;;;;;;;;;;5023465;28;21069;-68
2022/01/24 06:35:40;;;;;;;0.00;0.00;;;;;;;;;;5022285;28;20242;-68
2022/01/24 06:38:07;;;;;;;0.00;0.00;;;;;;;;;;5024611;28;20195;-69
2022/01/24 06:40:35;;;;;;;0.00;0.00;;;;;;;;;;5021994;28;20208;-70
2022/01/24 06:43:02;;;;;;;0.00;0.00;;;;;;;;;;5020531;28;20203;-68
2022/01/24 06:45:31;;;;;;;0.00;0.00;;;;;;;;;;5034158;28;20227;-70
2022/01/24 06:47:58;;;;;;;0.00;0.00;;;;;;;;;;5010602;28;22924;-67
2022/01/24 06:50:26;;;;;;;0.00;0.00;;;;;;;;;;5009393;28;20272;-70
2022/01/24 06:52:53;;;;;;;0.00;0.00;;;;;;;;;;5010835;28;20200;-67
2022/01/24 06:55:20;;;;;;;0.00;0.00;;;;;;;;;;5010826;28;20277;-72
2022/01/24 06:57:49;;;;;;;0.00;0.00;;;;;;;;;;5013104;28;20794;-71
2022/01/24 07:00:17;;;;;;;0.00;0.00;;;;;;;;;;5013040;28;20192;-69
2022/01/24 07:02:45;;;;;;;0.00;0.00;;;;;;;;;;5016129;28;20676;-71
2022/01/24 07:05:13;;;;;;;0.00;0.00;;;;;;;;;;5007772;28;20209;-69
2022/01/24 07:07:40;;;;;;;0.00;0.00;;;;;;;;;;5016073;28;20199;-66
2022/01/24 07:10:08;;;;;;;0.00;0.00;;;;;;;;;;5009950;28;20219;-70
2022/01/24 07:12:35;;;;;;;0.00;0.00;;;;;;;;;;5023974;28;20199;-68
2022/01/24 07:15:08;;;;;;;0.00;0.00;;;;;;;;;;5026567;28;20240;-69
2022/01/24 07:17:57;;;;;;;0.00;0.00;;;;;;;;;;5024656;28;20345;-67
2022/01/24 07:20:24;;;;;;;0.00;0.00;;;;;;;;;;5022634;28;20201;-67
2022/01/24 07:22:53;;;;;;;0.43;0.43;;;;;;;;;;5029755;28;20221;-70
2022/01/24 07:25:21;;;;;;;0.00;0.00;;;;;;;;;;5028371;28;20196;-67
2022/01/24 07:27:48;;;;;;;0.10;0.10;;;;;;;;;;5028230;28;20207;-73
2022/01/24 09:50:46;;;;;;;0.00;0.00;;;;;;;;;;5049356;27;21121;-70
2022/01/24 09:53:14;;;;;;;0.00;0.00;;;;;;;;;;5047783;28;20214;-72
2022/01/24 09:55:41;;;;;;;0.23;0.23;;;;;;;;;;5043171;28;20742;-70
2022/01/24 09:58:08;;;;;;;1.40;0.97;;;;;;;;;;5047869;28;20241;-74
2022/01/24 10:00:36;;;;;;;0.00;0.00;;;;;;;;;;5042467;28;21820;-71
2022/01/24 10:03:03;;;;;;;0.00;0.00;;;;;;;;;;5045129;28;20199;-72
2022/01/24 10:05:33;;;;;;;0.00;0.00;;;;;;;;;;5043264;28;20203;-70
2022/01/24 10:08:02;;;;;;;0.63;0.63;;;;;;;;;;5052147;28;20241;-71
2022/01/24 10:10:32;;;;;;;0.50;0.50;;;;;;;;;;5052222;28;20668;-70
2022/01/24 10:16:28;;;;;;;0.97;0.97;;;;;;;;;;5053928;28;20250;-68
2022/01/24 10:19:00;;;;;;;1.80;0.70;;;;;;;;;;5051811;28;20342;-69
2022/01/24 10:21:27;;;;;;;0.03;0.03;;;;;;;;;;5052863;28;20204;-71
2022/01/24 10:23:57;;;;;;;0.00;0.00;;;;;;;;;;5048382;28;20210;-68
2022/01/24 10:26:26;;;;;;;0.13;0.13;;;;;;;;;;5039784;28;20208;-70
2022/01/24 10:28:53;;;;;;;0.00;0.00;;;;;;;;;;5042369;28;20207;-70
2022/01/24 10:31:24;;;;;;;1.33;1.07;;;;;;;;;;5042388;28;20192;-72
2022/01/24 10:34:03;;;;;;;0.10;0.10;;;;;;;;;;5039708;28;20211;-70
2022/01/24 10:36:41;;;;;;;0.00;0.00;;;;;;;;;;5042520;28;20538;-66
2022/01/24 10:39:12;;;;;;;0.50;0.50;;;;;;;;;;5044684;28;20229;-66
2022/01/24 10:41:53;;;;;;;0.00;0.00;;;;;;;;;;5045961;28;20209;-65
2022/01/24 10:44:27;;;;;;;1.30;0.37;;;;;;;;;;5043450;28;20211;-67
2022/01/24 10:46:55;;;;;;;3.10;1.90;;;;;;;;;;5044753;28;20683;-76
2022/01/24 10:49:33;;;;;;;0.00;0.00;;;;;;;;;;5045904;28;20711;-66
2022/01/24 10:52:10;;;;;;;0.37;0.37;;;;;;;;;;5047708;28;21094;-67
2022/01/24 10:54:38;;;;;;;6.03;3.37;;;;;;;;;;5040862;28;20268;-67
2022/01/24 10:57:06;;;;;;;0.70;0.70;;;;;;;;;;5050676;28;20257;-68
2022/01/24 10:59:35;;;;;;;1.50;1.40;;;;;;;;;;5043529;28;20219;-67
2022/01/24 11:02:03;;;;;;;0.00;0.00;;;;;;;;;;5028956;28;20199;-68
2022/01/24 11:04:33;;;;;;;0.97;0.43;;;;;;;;;;5028705;28;21066;-70
2022/01/24 11:07:02;;;;;;;1.03;1.03;;;;;;;;;;5030113;28;20581;-72
2022/01/24 11:09:31;;;;;;;1.13;0.87;;;;;;;;;;5037040;28;20200;-69
2022/01/24 11:12:01;;;;;;;0.53;0.53;;;;;;;;;;5038299;28;20208;-68
2022/01/24 11:14:29;;;;;;;0.00;0.00;;;;;;;;;;5039499;28;20782;-71
2022/01/24 11:16:59;;;;;;;0.00;0.00;;;;;;;;;;5037898;28;20196;-68
2022/01/24 11:19:30;;;;;;;0.00;0.00;;;;;;;;;;5039372;28;20229;-69
2022/01/24 11:21:58;;;;;;;0.00;0.00;;;;;;;;;;5037350;28;20200;-70
2022/01/24 11:24:35;;;;;;;0.10;0.10;;;;;;;;;;5037622;28;20208;-69
2022/01/24 11:27:05;;;;;;;0.00;0.00;;;;;;;;;;5036275;28;20196;-70
2022/01/24 11:29:33;;;;;;;0.00;0.00;;;;;;;;;;5035835;28;20204;-68
2022/01/24 11:32:08;;;;;;;0.67;0.67;;;;;;;;;;5036086;28;20203;-69
2022/01/24 11:34:36;;;;;;;0.63;0.63;;;;;;;;;;5035899;28;20817;-67
2022/01/24 11:37:03;;;;;;;1.23;1.23;;;;;;;;;;5037785;28;20203;-69
2022/01/24 11:39:31;;;;;;;0.00;0.00;;;;;;;;;;5036801;28;20238;-70
2022/01/24 11:41:59;;;;;;;0.33;0.33;;;;;;;;;;5038199;28;20195;-70
2022/01/24 11:44:45;;;;;;;0.57;0.40;;;;;;;;;;5031091;28;20214;-73
2022/01/24 11:47:22;;;;;;;0.67;0.40;;;;;;;;;;5026778;28;20625;-73
2022/01/24 11:49:52;;;;;;;0.00;0.00;;;;;;;;;;5029253;28;20272;-70
2022/01/24 11:52:20;;;;;;;0.00;0.00;;;;;;;;;;5028440;28;20206;-70
2022/01/24 11:54:53;;;;;;;0.27;0.27;;;;;;;;;;5025885;28;20199;-71
2022/01/24 11:57:23;;;;;;;0.20;0.20;;;;;;;;;;5029848;28;20200;-70
2022/01/24 11:59:52;;;;;;;0.00;0.00;;;;;;;;;;5028482;28;20231;-71
2022/01/24 12:02:22;;;;;;;0.00;0.00;;;;;;;;;;5031780;28;20203;-71
2022/01/24 12:04:50;;;;;;;0.00;0.00;;;;;;;;;;5036795;28;20203;-70
2022/01/24 12:07:18;;;;;;;0.00;0.00;;;;;;;;;;5040414;28;20211;-71
2022/01/24 12:09:46;;;;;;;5.47;5.17;;;;;;;;;;5038137;28;20208;-71
2022/01/24 12:12:34;;;;;;;2.10;0.90;;;;;;;;;;5039560;28;20204;-74
2022/01/24 12:15:03;;;;;;;1.10;1.10;;;;;;;;;;5039178;28;20219;-72
2022/01/24 12:17:47;;;;;;;0.00;0.00;;;;;;;;;;5036211;28;20203;-70
2022/01/24 12:20:34;;;;;;;0.00;0.00;;;;;;;;;;5046246;28;20716;-72
2022/01/24 12:23:24;;;;;;;0.00;0.00;;;;;;;;;;5043219;28;20282;-71
2022/01/24 12:25:54;;;;;;;0.00;0.00;;;;;;;;;;5034696;28;21521;-71
2022/01/24 12:28:23;;;;;;;0.00;0.00;;;;;;;;;;5028563;28;20203;-70
2022/01/24 12:31:03;;;;;;;0.00;0.00;;;;;;;;;;5028566;28;20307;-73
2022/01/24 12:33:34;;;;;;;0.30;0.30;;;;;;;;;;5026312;28;20199;-72
2022/01/24 12:36:02;;;;;;;0.00;0.00;;;;;;;;;;5029119;28;21882;-70
2022/01/24 12:38:40;;;;;;;0.00;0.00;;;;;;;;;;5032048;28;20203;-69
2022/01/24 12:41:18;;;;;;;0.00;0.00;;;;;;;;;;5037747;28;20322;-70
2022/01/24 12:43:56;;;;;;;0.00;0.00;;;;;;;;;;5036166;28;20225;-71
2022/01/24 12:46:26;;;;;;;0.00;0.00;;;;;;;;;;5035644;28;20196;-71
2022/01/24 12:48:54;;;;;;;0.00;0.00;;;;;;;;;;5035860;28;20230;-70
2022/01/24 12:51:22;;;;;;;0.10;0.10;;;;;;;;;;5034258;28;20473;-71
2022/01/24 12:53:49;;;;;;;0.00;0.00;;;;;;;;;;5035375;28;20203;-70
2022/01/24 12:56:18;;;;;;;0.00;0.00;;;;;;;;;;5034851;28;20678;-69
2022/01/24 12:58:46;;;;;;;0.40;0.30;;;;;;;;;;5032674;28;20204;-69
2022/01/24 13:01:20;;;;;;;0.00;0.00;;;;;;;;;;5031763;28;20231;-69
2022/01/24 13:03:50;;;;;;;0.67;0.67;;;;;;;;;;5025585;28;20210;-70
2022/01/24 13:06:18;;;;;;;1.03;0.93;;;;;;;;;;5026560;28;20257;-67
2022/01/24 13:08:55;;;;;;;0.10;0.10;;;;;;;;;;5028551;28;20199;-66
2022/01/24 13:11:24;;;;;;;0.00;0.00;;;;;;;;;;5025897;28;20218;-70
2022/01/24 13:14:03;;;;;;;7.10;1.40;;;;;;;;;;5026978;28;21412;-78
2022/01/24 13:22:22;;;;;;;1.70;0.53;;;;;;;;;;5030596;28;20234;-70
2022/01/24 13:25:03;;;;;;;0.07;0.07;;;;;;;;;;5027040;28;20212;-72
2022/01/24 13:27:37;;;;;;;1.97;1.87;;;;;;;;;;5026595;28;20208;-69
2022/01/24 13:30:05;;;;;;;0.73;0.67;;;;;;;;;;5025606;28;20192;-68
2022/01/24 13:32:47;;;;;;;0.33;0.33;;;;;;;;;;5026755;28;21328;-72
2022/01/24 13:35:21;;;;;;;0.00;0.00;;;;;;;;;;5025067;28;20203;-71
2022/01/24 13:37:48;;;;;;;1.17;0.70;;;;;;;;;;5028024;28;20206;-71
2022/01/24 13:40:16;;;;;;;0.57;0.57;;;;;;;;;;5033260;28;20219;-71
2022/01/24 13:42:43;;;;;;;0.00;0.00;;;;;;;;;;5030260;28;20199;-71
2022/01/24 13:45:11;;;;;;;2.30;1.53;;;;;;;;;;5037349;28;20579;-69
2022/01/24 13:47:38;;;;;;;0.70;0.70;;;;;;;;;;5033846;28;20199;-71
2022/01/24 13:50:08;;;;;;;0.83;0.83;;;;;;;;;;5026682;28;20250;-70
2022/01/24 13:52:37;;;;;;;1.50;0.93;;;;;;;;;;5019031;28;20717;-67
2022/01/24 13:55:17;;;;;;;0.00;0.00;;;;;;;;;;5024221;28;20211;-67
2022/01/24 13:57:46;;;;;;;0.97;0.97;;;;;;;;;;5038412;28;20218;-71
2022/01/24 14:00:16;;;;;;;2.93;2.73;;;;;;;;;;5031103;28;20231;-68
2022/01/24 14:02:43;;;;;;;1.63;1.53;;;;;;;;;;5012323;28;20287;-67
2022/01/24 14:05:10;;;;;;;2.00;1.03;;;;;;;;;;5009400;28;20297;-70
2022/01/24 14:07:42;;;;;;;0.00;0.00;;;;;;;;;;5010222;28;20195;-71
2022/01/24 14:10:11;;;;;;;0.00;0.00;;;;;;;;;;5019430;28;20286;-69
2022/01/24 14:12:50;;;;;;;1.23;1.13;;;;;;;;;;5016791;28;20199;-73
2022/01/24 14:15:23;;;;;;;0.23;0.23;;;;;;;;;;5004624;28;20552;-71
2022/01/24 14:18:24;;;;;;;0.00;0.00;;;;;;;;;;5018749;28;20209;-68
2022/01/24 14:20:52;;;;;;;0.37;0.37;;;;;;;;;;5020351;28;20238;-66
2022/01/24 14:23:25;;;;;;;0.40;0.40;;;;;;;;;;5007895;28;20196;-69
2022/01/24 14:25:53;;;;;;;2.63;2.23;;;;;;;;;;5009421;28;20199;-70
2022/01/24 14:28:23;;;;;;;0.00;0.00;;;;;;;;;;5002265;28;20208;-72
2022/01/24 14:30:54;;;;;;;0.10;0.10;;;;;;;;;;5005362;28;20195;-73
2022/01/24 14:33:22;;;;;;;2.67;1.23;;;;;;;;;;5007713;28;21573;-70
2022/01/24 14:35:54;;;;;;;0.60;0.33;;;;;;;;;;5007243;28;20564;-73
2022/01/24 14:38:34;;;;;;;1.17;0.43;;;;;;;;;;5017737;28;20192;-74
2022/01/24 14:41:02;;;;;;;1.53;0.87;;;;;;;;;;5018334;28;22032;-66
2022/01/24 14:46:17;;;;;;;0.17;0.17;;;;;;;;;;5013560;28;20248;-66
2022/01/24 14:48:48;;;;;;;0.00;0.00;;;;;;;;;;5016169;28;20769;-65
2022/01/24 14:51:16;;;;;;;0.63;0.47;;;;;;;;;;5008400;28;20206;-70
2022/01/24 14:53:45;;;;;;;0.67;0.13;;;;;;;;;;5009520;28;20202;-67
2022/01/24 14:56:16;;;;;;;0.17;0.17;;;;;;;;;;5014306;28;20203;-76
2022/01/24 14:58:44;;;;;;;1.70;1.60;;;;;;;;;;5033582;28;20208;-76
2022/01/24 15:01:11;;;;;;;3.47;1.20;;;;;;;;;;5039640;28;20752;-66
2022/01/24 15:03:40;;;;;;;2.37;1.83;;;;;;;;;;5038545;28;20214;-69
2022/01/24 15:06:08;;;;;;;3.20;1.13;;;;;;;;;;5038612;28;20223;-65
2022/01/24 15:08:36;;;;;;;0.77;0.77;;;;;;;;;;5040368;28;20584;-70
2022/01/24 15:11:05;;;;;;;0.43;0.43;;;;;;;;;;5038907;28;20202;-67
2022/01/24 15:13:40;;;;;;;0.13;0.13;;;;;;;;;;5034775;28;20199;-69
2022/01/24 15:16:16;;;;;;;0.10;0.10;;;;;;;;;;5037531;28;20245;-69
2022/01/24 15:24:29;;;;;;;5.30;3.53;;;;;;;;;;5039190;28;20208;-72
2022/01/24 15:26:58;;;;;;;0.00;0.00;;;;;;;;;;5037802;28;20203;-74
2022/01/24 15:29:26;;;;;;;2.47;2.37;;;;;;;;;;5036852;28;20688;-71
2022/01/24 15:31:55;;;;;;;2.67;0.60;;;;;;;;;;5037026;28;20195;-71
2022/01/24 15:34:23;;;;;;;0.10;0.10;;;;;;;;;;5035730;28;20203;-66
2022/01/24 15:36:51;;;;;;;0.00;0.00;;;;;;;;;;5035383;28;20196;-69
2022/01/24 15:39:19;;;;;;;0.70;0.70;;;;;;;;;;5035818;28;20659;-78
2022/01/24 15:41:51;;;;;;;1.40;0.97;;;;;;;;;;5035253;28;20254;-67
2022/01/24 15:44:48;;;;;;;0.20;0.20;;;;;;;;;;5038036;28;20227;-68
2022/01/24 15:47:31;;;;;;;0.00;0.00;;;;;;;;;;5035091;28;20203;-67
2022/01/24 15:49:59;;;;;;;2.73;1.30;;;;;;;;;;5032056;28;20239;-70
2022/01/24 15:52:27;;;;;;;2.90;1.60;;;;;;;;;;5033133;28;20208;-70
2022/01/24 15:54:55;;;;;;;0.00;0.00;;;;;;;;;;5035465;28;20215;-70
2022/01/24 15:57:42;;;;;;;2.00;1.90;;;;;;;;;;5034226;28;20783;-66
2022/01/24 16:00:16;;;;;;;0.00;0.00;;;;;;;;;;5033879;28;20696;-67
2022/01/24 16:02:45;;;;;;;0.00;0.00;;;;;;;;;;5033367;28;20656;-72
2022/01/24 16:05:12;;;;;;;0.10;0.10;;;;;;;;;;5036612;28;20203;-66
2022/01/24 16:07:40;;;;;;;0.00;0.00;;;;;;;;;;5034678;28;20199;-68
2022/01/24 16:10:10;;;;;;;0.00;0.00;;;;;;;;;;5028998;28;21350;-68
2022/01/24 16:12:38;;;;;;;0.13;0.13;;;;;;;;;;5035202;28;20672;-71
2022/01/24 16:15:06;;;;;;;0.00;0.00;;;;;;;;;;5031809;28;20282;-67
2022/01/24 16:17:35;;;;;;;1.97;0.87;;;;;;;;;;5033685;28;20200;-66
2022/01/24 16:20:09;;;;;;;0.00;0.00;;;;;;;;;;5031819;28;20207;-67
2022/01/24 16:22:59;;;;;;;0.00;0.00;;;;;;;;;;5036814;28;20231;-67
2022/01/24 16:25:38;;;;;;;0.00;0.00;;;;;;;;;;5045709;28;20191;-69
2022/01/24 16:28:07;;;;;;;0.00;0.00;;;;;;;;;;5041270;28;20218;-67
2022/01/24 16:30:35;;;;;;;0.00;0.00;;;;;;;;;;5041295;28;20207;-67
2022/01/24 16:33:04;;;;;;;0.70;0.60;;;;;;;;;;5046309;28;20210;-67
2022/01/24 16:35:32;;;;;;;0.00;0.00;;;;;;;;;;5043169;28;20208;-67
2022/01/24 16:38:00;;;;;;;0.00;0.00;;;;;;;;;;5045613;28;20203;-66
2022/01/24 16:40:31;;;;;;;0.00;0.00;;;;;;;;;;5042778;28;20679;-67
2022/01/24 16:43:26;;;;;;;4.27;1.73;;;;;;;;;;5034220;28;20204;-67
2022/01/24 16:48:41;;;;;;;0.30;0.30;;;;;;;;;;5037297;28;20276;-67
2022/01/24 16:51:09;;;;;;;0.27;0.27;;;;;;;;;;5039141;28;20209;-66
2022/01/24 16:53:40;;;;;;;0.03;0.03;;;;;;;;;;5043706;28;20549;-66
2022/01/24 16:56:07;;;;;;;0.00;0.00;;;;;;;;;;5042446;28;20199;-65
2022/01/24 16:58:35;;;;;;;0.00;0.00;;;;;;;;;;5035612;28;20210;-67
2022/01/24 17:01:03;;;;;;;0.73;0.73;;;;;;;;;;5033014;28;20709;-66
2022/01/24 17:03:30;;;;;;;0.00;0.00;;;;;;;;;;5033975;28;20192;-66
2022/01/24 17:05:59;;;;;;;0.90;0.90;;;;;;;;;;5034482;28;20208;-64
2022/01/24 17:08:27;;;;;;;0.00;0.00;;;;;;;;;;5034557;28;20180;-65
2022/01/24 17:10:57;;;;;;;0.00;0.00;;;;;;;;;;5040462;28;20218;-67
2022/01/24 17:13:24;;;;;;;0.00;0.00;;;;;;;;;;5037629;28;20192;-64
2022/01/24 17:15:54;;;;;;;0.00;0.00;;;;;;;;;;5032819;28;20192;-66
2022/01/24 17:18:22;;;;;;;0.60;0.60;;;;;;;;;;5033929;28;20281;-68
2022/01/24 17:20:50;;;;;;;0.10;0.07;;;;;;;;;;5032161;28;20645;-66
2022/01/24 17:23:20;;;;;;;0.00;0.00;;;;;;;;;;5031956;28;20915;-67
2022/01/24 17:25:47;;;;;;;0.60;0.60;;;;;;;;;;5034302;28;20207;-70
2022/01/24 17:28:14;;;;;;;0.10;0.10;;;;;;;;;;5036901;28;20581;-66
2022/01/24 17:30:42;;;;;;;0.20;0.20;;;;;;;;;;5043221;28;20195;-67
2022/01/24 17:33:13;;;;;;;0.00;0.00;;;;;;;;;;5043487;28;20203;-71
2022/01/24 17:35:40;;;;;;;0.00;0.00;;;;;;;;;;5044563;28;20325;-67
2022/01/24 17:38:08;;;;;;;1.40;1.10;;;;;;;;;;5041439;28;22082;-68
2022/01/24 17:40:38;;;;;;;0.00;0.00;;;;;;;;;;5032217;28;20207;-72
2022/01/24 17:43:06;;;;;;;0.00;0.00;;;;;;;;;;5031382;28;20564;-69
2022/01/24 17:45:33;;;;;;;0.00;0.00;;;;;;;;;;5046089;28;20294;-70
2022/01/24 17:48:00;;;;;;;0.00;0.00;;;;;;;;;;5044399;28;20200;-70
2022/01/24 17:50:28;;;;;;;0.00;0.00;;;;;;;;;;5038565;28;20241;-74
2022/01/24 17:52:55;;;;;;;0.00;0.00;;;;;;;;;;5044364;28;20699;-71
2022/01/24 17:55:23;;;;;;;0.00;0.00;;;;;;;;;;5041758;28;20199;-72
2022/01/24 17:57:52;;;;;;;0.00;0.00;;;;;;;;;;5042682;28;20725;-70
2022/01/24 18:00:21;;;;;;;0.00;0.00;;;;;;;;;;5041928;28;20286;-72
2022/01/24 18:02:48;;;;;;;0.00;0.00;;;;;;;;;;5040745;28;20717;-73
2022/01/24 18:05:16;;;;;;;0.00;0.00;;;;;;;;;;5042109;28;20199;-73
2022/01/24 18:07:48;;;;;;;0.00;0.00;;;;;;;;;;5042544;28;20200;-70
2022/01/24 18:10:16;;;;;;;0.00;0.00;;;;;;;;;;5042439;28;20265;-71
2022/01/24 18:12:48;;;;;;;0.00;0.00;;;;;;;;;;5041531;28;20316;-71
2022/01/24 18:15:17;;;;;;;0.00;0.00;;;;;;;;;;5035837;28;20184;-71
2022/01/24 18:17:44;;;;;;;0.00;0.00;;;;;;;;;;5038042;28;20195;-71
2022/01/24 18:20:12;;;;;;;0.00;0.00;;;;;;;;;;5040075;28;20209;-70
2022/01/24 18:22:39;;;;;;;0.00;0.00;;;;;;;;;;5038947;28;20238;-66
2022/01/24 18:25:07;;;;;;;0.00;0.00;;;;;;;;;;5036515;28;20238;-68
2022/01/24 18:27:35;;;;;;;0.00;0.00;;;;;;;;;;5040113;28;20199;-67
2022/01/24 18:30:02;;;;;;;0.00;0.00;;;;;;;;;;5046984;28;20204;-69
2022/01/24 18:32:31;;;;;;;0.00;0.00;;;;;;;;;;5046704;28;20215;-68
2022/01/24 18:34:58;;;;;;;0.00;0.00;;;;;;;;;;5047188;28;20253;-68
2022/01/24 18:37:27;;;;;;;0.00;0.00;;;;;;;;;;5045336;28;20790;-66
2022/01/24 18:39:57;;;;;;;0.00;0.00;;;;;;;;;;5044426;28;20663;-71
2022/01/24 18:42:29;;;;;;;0.00;0.00;;;;;;;;;;5046405;28;20796;-69
2022/01/24 18:44:57;;;;;;;0.00;0.00;;;;;;;;;;5044783;28;20192;-69
2022/01/24 18:47:25;;;;;;;0.00;0.00;;;;;;;;;;5036252;28;20208;-71
2022/01/24 18:49:55;;;;;;;0.00;0.00;;;;;;;;;;5037190;28;21317;-71
2022/01/24 18:52:23;;;;;;;0.10;0.10;;;;;;;;;;5037485;28;20192;-69
2022/01/24 18:54:50;;;;;;;0.00;0.00;;;;;;;;;;5038755;28;20571;-71
2022/01/24 18:57:18;;;;;;;0.00;0.00;;;;;;;;;;5038597;28;20204;-71
2022/01/24 18:59:46;;;;;;;0.00;0.00;;;;;;;;;;5037243;28;20283;-71
2022/01/24 19:02:13;;;;;;;0.00;0.00;;;;;;;;;;5032398;28;22098;-65
2022/01/24 19:04:41;;;;;;;0.00;0.00;;;;;;;;;;5037105;28;20218;-70
2022/01/24 19:07:10;;;;;;;0.40;0.40;;;;;;;;;;5040533;28;20200;-68
2022/01/24 19:09:38;;;;;;;0.00;0.00;;;;;;;;;;5040738;28;20715;-68
2022/01/24 19:12:06;;;;;;;0.10;0.10;;;;;;;;;;5037765;28;20644;-67
2022/01/24 19:14:33;;;;;;;0.27;0.27;;;;;;;;;;5039360;28;20196;-68
2022/01/24 19:17:05;;;;;;;0.00;0.00;;;;;;;;;;5039772;28;20228;-69
2022/01/24 19:19:45;;;;;;;0.00;0.00;;;;;;;;;;5041857;28;20306;-67
2022/01/24 19:24:59;;;;;;;0.00;0.00;;;;;;;;;;5039142;28;20219;-67
2022/01/24 19:27:26;;;;;;;0.00;0.00;;;;;;;;;;5040390;28;20669;-67
2022/01/24 19:29:54;;;;;;;0.00;0.00;;;;;;;;;;5041054;28;20420;-67
2022/01/24 19:32:22;;;;;;;0.00;0.00;;;;;;;;;;5039959;28;20200;-67
2022/01/24 19:34:49;;;;;;;0.20;0.20;;;;;;;;;;5041120;28;20274;-67
2022/01/24 19:37:18;;;;;;;0.00;0.00;;;;;;;;;;5038821;28;20208;-68
2022/01/24 19:39:45;;;;;;;0.50;0.50;;;;;;;;;;5032734;28;20669;-67
2022/01/24 19:42:13;;;;;;;0.00;0.00;;;;;;;;;;5038638;28;20760;-68
2022/01/24 19:44:41;;;;;;;0.00;0.00;;;;;;;;;;5040767;28;20192;-65
2022/01/24 19:47:09;;;;;;;0.00;0.00;;;;;;;;;;5040667;28;20204;-68
2022/01/24 19:49:36;;;;;;;0.00;0.00;;;;;;;;;;5040541;28;20223;-68
2022/01/24 19:52:05;;;;;;;0.00;0.00;;;;;;;;;;5041023;28;20259;-67
2022/01/24 19:54:35;;;;;;;0.00;0.00;;;;;;;;;;5041345;28;20227;-69
2022/01/24 19:57:08;;;;;;;0.00;0.00;;;;;;;;;;5041005;28;20671;-68
2022/01/24 19:59:41;;;;;;;0.00;0.00;;;;;;;;;;5047273;28;20215;-68
2022/01/24 20:02:09;;;;;;;0.00;0.00;;;;;;;;;;5050591;28;20230;-68
2022/01/24 20:04:37;;;;;;;0.00;0.00;;;;;;;;;;5048573;28;20274;-68
2022/01/24 20:07:05;;;;;;;0.00;0.00;;;;;;;;;;5040681;28;20192;-67
2022/01/24 20:09:34;;;;;;;0.00;0.00;;;;;;;;;;5040959;28;20250;-68
2022/01/24 20:12:01;;;;;;;0.00;0.00;;;;;;;;;;5041874;28;20204;-68
2022/01/24 20:14:29;;;;;;;0.00;0.00;;;;;;;;;;5042710;28;20728;-67
2022/01/24 20:16:59;;;;;;;0.00;0.00;;;;;;;;;;5040635;28;20201;-67
2022/01/24 20:19:26;;;;;;;0.00;0.00;;;;;;;;;;5040325;28;20866;-65
2022/01/24 20:21:53;;;;;;;0.00;0.00;;;;;;;;;;5037225;28;20573;-68
2022/01/24 20:24:21;;;;;;;0.00;0.00;;;;;;;;;;5043928;28;20192;-67
2022/01/24 20:26:50;;;;;;;0.00;0.00;;;;;;;;;;5042830;28;20196;-66
2022/01/24 20:29:22;;;;;;;0.00;0.00;;;;;;;;;;5040403;28;20199;-68
2022/01/24 20:31:52;;;;;;;0.00;0.00;;;;;;;;;;5040371;28;20265;-69
2022/01/24 20:34:20;;;;;;;0.00;0.00;;;;;;;;;;5039820;28;20350;-68
2022/01/24 20:36:48;;;;;;;0.00;0.00;;;;;;;;;;5042027;28;20197;-68
2022/01/24 20:39:16;;;;;;;0.20;0.20;;;;;;;;;;5040128;28;20215;-68
2022/01/24 20:41:43;;;;;;;0.00;0.00;;;;;;;;;;5042207;28;20207;-68
2022/01/24 20:44:13;;;;;;;0.00;0.00;;;;;;;;;;5041137;28;20196;-69
2022/01/24 20:46:40;;;;;;;0.00;0.00;;;;;;;;;;5040976;28;20277;-66
2022/01/24 20:49:08;;;;;;;0.00;0.00;;;;;;;;;;5040549;28;20231;-68
2022/01/24 20:51:38;;;;;;;0.00;0.00;;;;;;;;;;5040572;28;20253;-65
2022/01/24 20:54:06;;;;;;;1.50;1.50;;;;;;;;;;5039292;28;20699;-68
2022/01/24 20:56:33;;;;;;;0.00;0.00;;;;;;;;;;5045174;28;20187;-66
2022/01/24 20:59:01;;;;;;;0.00;0.00;;;;;;;;;;5047490;28;20208;-68